Tiempo atmosférico en la estación meteorológica de Soria, Soria (1082 m.)



Fecha
DESCASC
Temp. máxima en grados centígrados (hora)
DESCASC
Temp. mínima en grados centígrados (hora)
DESCASC
Temp. media en grados centígrados
DESCASC
Racha de viento máxima en m/sg (hora)
DESCASC
Velocidad máxima media en intervalos de 10 minutos(hora)
DESCASC
Precipitaciones diarias en mm
DESCASC
Precipitaciones de 00:00 a 06:00 en mm
DESCASC
Precipitaciones de 06:00 a 12:00 en mm
DESCASC
Precipitaciones de 12:00 a 18:00 en mm
DESCASC
Precipitaciones de 18:00 a 24:00 en mm
DESCASC
15-08-2019 29.8 (15:50) 13.8 (05:50) 21.8 10 (20:20) 5.83 (18:30) 0 0 0 0 0
14-08-2019 31.4 (16:40) 9.6 (00:00) 20.5 10.83 (14:20) 3.89 (19:40) 0 0 0 0 0
13-08-2019 26.3 (17:10) 9.7 (00:00) 18 11.11 (00:40) 6.39 (00:50) 0 0 0 0 0
12-08-2019 21.4 (15:40) 10.3 (00:00) 15.8 11.39 (21:00) 6.11 (20:50) 0 0 0 0 0
11-08-2019 26.9 (16:00) 14.5 (00:00) 20.7 8.61 (16:40) 4.72 (16:40) 0.2 0 0.2 0 0
10-08-2019 28.8 (17:30) 12.9 (00:00) 20.8 8.33 (15:10) 3.89 (02:20) 0 0 0 0 0
09-08-2019 30.4 (16:50) 17.2 (00:00) 23.8 11.67 (13:50) 6.39 (13:50) 3.2 0 0 2 1.2
08-08-2019 30.7 (18:30) 15.6 (00:00) 23.2 9.17 (14:50) 5 (10:10) 0 0 0 0 0
07-08-2019 27.5 (12:40) 17.5 (00:00) 22.5 9.44 (19:30) 5 (16:20) 0 0 0 0 0
06-08-2019 32.5 (16:50) 16 (00:00) 24.3 7.78 (15:10) 3.89 (20:30) 0 0 0 0 0
05-08-2019 34.1 (18:00) 16 (00:00) 25 8.89 (20:10) 5 (20:10) 0 0 0 0 0
04-08-2019 33.8 (17:10) 15.9 (00:00) 24.8 7.78 (14:20) 3.61 (17:20) 0 0 0 0 0
03-08-2019 33.5 (16:10) 13.5 (00:00) 23.5 8.06 (14:50) 3.89 (19:20) 0 0 0 0 0
02-08-2019 31.9 (16:10) 13.7 (00:00) 22.8 8.89 (17:40) 5 (17:40) 0 0 0 0 0
01-08-2019 31.3 (17:10) 16.3 (00:00) 23.8 10 (18:30) 5.56 (18:50) 0 0 0 0 0
31-07-2019 29.3 (17:40) 9.7 (00:00) 19.5 8.89 (17:50) 4.17 (18:40) 0 0 0 0 0
30-07-2019 25.3 (17:10) 11.2 (00:00) 18.2 10 (18:50) 5 (19:40) 0 0 0 0 0
29-07-2019 29.4 (17:30) 9.6 (00:00) 19.5 9.17 (17:20) 4.72 (13:40) 0 0 0 0 0
28-07-2019 26.2 (18:10) 9.2 (00:00) 17.7 7.5 (17:00) 3.61 (17:30) 0 0 0 0 0
27-07-2019 19.5 (13:40) 12 (00:00) 15.8 10 (14:20) 5.28 (14:20) 0.4 0 0 0 0.4
26-07-2019 25.4 (15:00) 15.6 (00:00) 20.5 8.61 (17:50) 5.28 (17:20) 0.8 0 0.8 0 0
25-07-2019 32.9 (16:10) 16.5 (00:00) 24.7 11.11 (15:50) 5.28 (15:50) -- 0 0 0 --
24-07-2019 33.8 (16:30) 16.7 (00:00) 25.3 8.89 (17:30) 4.44 (17:30) 0 0 0 0 0
23-07-2019 34.3 (17:20) 16.4 (00:00) 25.3 14.72 (19:00) 5.83 (19:00) 1.8 0 0 0 1.8
22-07-2019 34.1 (18:50) 16.6 (00:00) 25.3 10.56 (19:10) 5.56 (19:10) 0 0 0 0 0
21-07-2019 33.6 (18:00) 16.6 (00:00) 25.1 7.5 (18:40) 4.17 (20:00) 10 0 0 0 10
20-07-2019 33.3 (15:40) 15.9 (00:00) 24.6 9.44 (19:00) 4.17 (19:00) 0 0 0 0 0
19-07-2019 31.9 (16:20) 12.4 (00:00) 22.1 6.67 (19:20) 3.33 (19:20) 0.6 0 0 0 0.6
18-07-2019 30.7 (16:30) 13.5 (00:00) 22.1 8.33 (17:50) 4.72 (17:10) 0 0 0 0 0

Gráficas

Temp. máximas Temp. mínimas Temp. medias Precipitaciones Rachas de viento máximas Velocidades máximas media en intervalos de 10 minutos

Datos horarios

Fecha y hora oficial Temperatura (ºC) Velocidad del viento (km/h) Dirección del viento Racha (km/h) Dirección de racha Precipitación (mm) Presión (hPa) Tendencia (hPa) Humedad (%)
2019-08-16 23:00:00 22.4 2 Nordeste 8 Este 0 897 1.8 44
2019-08-16 22:00:00 23.6 3 Este 18 Este 0 896.3 1.2 41
2019-08-16 21:00:00 26.2 9 Nordeste 22 Nordeste 0 895.9 0.6 35
2019-08-16 20:00:00 31.3 7 Noroeste 22 Oeste 0 895.2 -0.5 22
2019-08-16 19:00:00 32.8 9 Oeste 24 Oeste 0 895.1 -1 20
2019-08-16 18:00:00 33.1 14 Oeste 27 Oeste 0 895.3 -1.4 20
2019-08-16 17:00:00 33 8 Oeste 28 Oeste 0 895.7 -1.6 20
2019-08-16 16:00:00 32.3 13 Oeste 31 Oeste 0 896.1 -1.7 20
2019-08-16 15:00:00 31.3 9 Sudoeste 26 Sudoeste 0 896.7 -1.5 25
2019-08-16 14:00:00 29.2 8 Sur 20 Sur 0 897.3 -1.1 34
2019-08-16 13:00:00 28.2 10 Sur 17 Sur 0 897.8 -0.9 36
2019-08-16 12:00:00 26.7 7 Sudeste 13 Sudeste 0 898.2 -0.5 38
2019-08-16 11:00:00 24 4 Sudeste 8 Sudeste 0 898.4 -0.1 43
2019-08-16 10:00:00 20.5 4 Noroeste 6 Norte 0 898.7 0.3 50
2019-08-16 09:00:00 14.8 3 Este 7 Este 0 898.7 0.4 71
2019-08-16 08:00:00 11.9 0 Calma 4 Noroeste 0 898.5 -0.2 80
2019-08-16 07:00:00 12.3 2 Este 5 Nordeste 0 898.4 -0.6 76
2019-08-16 06:00:00 13.5 3 Norte 5 Norte 0 898.3 -0.8 70
2019-08-16 05:00:00 13.7 3 Nordeste 5 Nordeste 0 898.7 -0.7 74
2019-08-16 04:00:00 15.1 3 Norte 6 Norte 0 899 -0.5 69
2019-08-16 03:00:00 16.1 2 Noroeste 9 Sudoeste 0 899.1 -0.5 65
2019-08-16 02:00:00 16.2 6 Sur 12 Sudoeste 0 899.4 -0.2 66
2019-08-16 01:00:00 17.2 4 Sudeste 8 Este 0 899.5 0.2 59
2019-08-16 00:00:00 17.5 4 Nordeste 12 Este 0 899.6 0.9 60
2019-08-15 23:00:00 18.5 7 Este 21 Nordeste 0 899.6 1.1 58
2019-08-15 22:00:00 20 12 Nordeste 28 Nordeste 0 899.3 1.1 52
2019-08-15 21:00:00 21.5 16 Nordeste 36 Nordeste 0 898.7 0.7 48
2019-08-15 20:00:00 23.2 19 Norte 35 Norte 0 898.5 0.8 47
2019-08-15 19:00:00 25.4 16 Nordeste 35 Nordeste 0 898.2 0.1 44
2019-08-15 18:00:00 26.2 19 Nordeste 31 Nordeste 0 898 -0.6 43
2019-08-15 17:00:00 28.7 14 Nordeste 26 Nordeste 0 897.7 -1.5 36
2019-08-15 16:00:00 29.1 12 Nordeste 20 Este 0 898.1 -1.5 36
2019-08-15 15:00:00 28.7 8 Oeste 20 Sur 0 898.6 -1.3 32
2019-08-15 14:00:00 27.1 6 Este 17 Sudeste 0 899.2 -0.7 37
2019-08-15 13:00:00 25.4 5 Sudeste 15 Nordeste 0 899.6 -0.4 43
2019-08-15 12:00:00 24 5 Sur 11 Este 0 899.9 0 47
2019-08-15 11:00:00 22.8 5 Sudeste 12 Este 0 899.9 0.5 50
2019-08-15 10:00:00 20 6 Este 12 Este 0 900 0.7 60
2019-08-15 09:00:00 15.9 4 Nordeste 11 Nordeste 0 899.9 1 75
2019-08-15 08:00:00 13.8 3 Este 10 Nordeste 0 899.4 0.6 83
2019-08-15 07:00:00 13.9 6 Nordeste 11 Norte 0 899.3 0.1 81
2019-08-15 06:00:00 13.8 8 Nordeste 12 Nordeste 0 898.9 -0.3 78
2019-08-15 05:00:00 14.1 2 Nordeste 7 Nordeste 0 898.8 -0.6 79
2019-08-15 04:00:00 14.9 3 Norte 10 Este 0 899.2 -0.3 74
2019-08-15 03:00:00 15.5 4 Este 10 Este 0 899.2 -0.3 73
2019-08-15 02:00:00 16 3 Este 12 Nordeste 0 899.4 0.1 67
2019-08-15 01:00:00 17.2 4 Nordeste 16 Nordeste 0 899.5 0.6 63
2019-08-15 00:00:00 18.2 5 Nordeste 16 Este 0 899.5 1.1 59
2019-08-14 23:00:00 19.5 10 Nordeste 19 Nordeste 0 899.3 1.6 55
2019-08-14 22:00:00 21.3 10 Nordeste 26 Este 0 898.9 1.5 49
2019-08-14 21:00:00 24.4 12 Este 25 Este 0 898.4 1.1 37
2019-08-14 20:00:00 26.7 10 Este 22 Nordeste 0 897.7 0.1 29
2019-08-14 19:00:00 30.4 8 Noroeste 22 Noroeste 0 897.4 -0.4 20
2019-08-14 18:00:00 30.9 8 Oeste 23 Oeste 0 897.3 -1 19
2019-08-14 17:00:00 31.4 8 Norte 20 Oeste 0 897.6 -1.1 18
2019-08-14 16:00:00 30.6 9 Noroeste 22 Oeste 0 897.8 -1.4 18
2019-08-14 15:00:00 29.9 7 Norte 39 Nordeste 0 898.3 -1.2 20
2019-08-14 14:00:00 28.4 8 Oeste 22 Oeste 0 898.7 -1 22
2019-08-14 13:00:00 26.6 8 Noroeste 16 Noroeste 0 899.2 -0.6 24
2019-08-14 12:00:00 24.9 8 Noroeste 20 Oeste 0 899.5 -0.4 26
2019-08-14 11:00:00 21.3 6 Oeste 12 Nordeste 0 899.7 0.2 34
2019-08-14 10:00:00 17.1 3 Norte 8 Norte 0 899.8 0.5 50
2019-08-14 09:00:00 11.7 3 Norte 9 Norte 0 899.9 0.6 64
2019-08-14 08:00:00 10 4 Norte 9 Norte 0 899.5 0.4 75
2019-08-14 07:00:00 9.9 2 Norte 5 Norte 0 899.3 -0.2 76
2019-08-14 06:00:00 10.3 2 Norte 7 Norte 0 899.3 -0.2 75
2019-08-14 05:00:00 10.7 3 Norte 9 Norte 0 899.1 -0.6 75
2019-08-14 04:00:00 11.1 0 Calma 6 Noroeste 0 899.5 0 70
2019-08-14 03:00:00 12.5 0 Calma 5 Sudoeste 0 899.5 0 65
2019-08-14 02:00:00 13 0 Calma 5 Este 0 899.7 0.2 63
2019-08-14 01:00:00 13.4 3 Este 9 Nordeste 0 899.5 0.4 62
2019-08-14 00:00:00 14.8 4 Nordeste 13 Nordeste 0 899.5 1.1 59
2019-08-13 23:00:00 15.4 5 Este 14 Este 0 899.5 1.5 56
2019-08-13 22:00:00 17.2 6 Nordeste 22 Norte 0 899.1 1.4 49
2019-08-13 21:00:00 19.4 11 Nordeste 23 Nordeste 0 898.4 1.2 39
2019-08-13 20:00:00 21.8 13 Nordeste 28 Nordeste 0 898 0.6 34
2019-08-13 19:00:00 23.7 17 Este 33 Nordeste 0 897.7 -0.1 31
2019-08-13 18:00:00 26.2 5 Sur 17 Oeste 0 897.2 -1.1 19
2019-08-13 17:00:00 25.7 8 Sur 29 Sudoeste 0 897.4 -1.6 18
2019-08-13 16:00:00 24.9 7 Oeste 19 Oeste 0 897.8 -1.6 21
2019-08-13 15:00:00 23.5 9 Sudoeste 17 Sudoeste 0 898.3 -1.2 24
2019-08-13 14:00:00 22.4 6 Oeste 21 Sudoeste 0 899 -0.6 26
2019-08-13 13:00:00 20.6 10 Sur 18 Sur 0 899.4 -0.3 29
2019-08-13 12:00:00 19.4 5 Nordeste 14 Oeste 0 899.5 -0.1 33
2019-08-13 11:00:00 17.1 5 Nordeste 15 Nordeste 0 899.6 0.3 39
2019-08-13 10:00:00 14.8 6 Este 14 Este 0 899.7 0.6 48
2019-08-13 09:00:00 10.9 4 Este 10 Este 0 899.6 0.5 67
2019-08-13 08:00:00 10.2 6 Nordeste 10 Nordeste 0 899.3 0 67
2019-08-13 07:00:00 9.8 5 Este 10 Nordeste 0 899.1 -0.5 72
2019-08-13 06:00:00 9.7 6 Este 10 Este 0 899.1 -0.9 73
2019-08-13 05:00:00 10.6 5 Este 9 Este 0 899.3 -0.5 71
2019-08-13 04:00:00 11.3 4 Nordeste 16 Nordeste 0 899.6 0 68
2019-08-13 03:00:00 11.4 5 Este 21 Norte 0 900 -0.1 72
2019-08-13 02:00:00 12.1 14 Norte 30 Nordeste 0 899.8 -0.5 69
2019-08-13 01:00:00 11.9 16 Norte 40 Nordeste 0 899.6 -0.4 70
2019-08-13 00:00:00 12.2 17 Nordeste 32 Nordeste 0 900.1 0.9 69
2019-08-12 23:00:00 12.4 13 Nordeste 24 Este 0 900.3 1.8 69
2019-08-12 22:00:00 13.3 12 Nordeste 31 Nordeste 0 900 2 64
2019-08-12 21:00:00 14.8 22 Nordeste 41 Nordeste 0 899.2 1.1 57
2019-08-12 20:00:00 17 19 Norte 36 Nordeste 0 898.5 0.5 45
2019-08-12 19:00:00 19 21 Nordeste 35 Nordeste 0 898 -0.1 39
2019-08-12 18:00:00 20.7 14 Norte 33 Norte 0 898.1 -0.3 31
2019-08-12 17:00:00 21.1 13 Nordeste 30 Nordeste 0 898 -0.4 30
2019-08-12 16:00:00 20.7 13 Nordeste 30 Nordeste 0 898.1 -0.6 33
2019-08-12 15:00:00 20.8 12 Nordeste 27 Nordeste 0 898.4 -0.4 30
2019-08-12 14:00:00 20.6 12 Nordeste 29 Nordeste 0 898.4 -0.2 31
2019-08-12 13:00:00 19.2 12 Nordeste 30 Nordeste 0 898.7 0.3 37
2019-08-12 12:00:00 17.9 14 Nordeste 27 Nordeste 0 898.8 0.9 44
2019-08-12 11:00:00 16.6 9 Nordeste 23 Norte 0 898.6 1.4 50
2019-08-12 10:00:00 14.4 13 Nordeste 25 Nordeste 0 898.4 1.6 58
2019-08-12 09:00:00 12.2 7 Nordeste 11 Nordeste 0 897.9 1.4 73
2019-08-12 08:00:00 10.4 3 Norte 13 Nordeste 0 897.2 0.7 82
2019-08-12 07:00:00 10.4 6 Norte 12 Nordeste 0 896.8 0.2 82
2019-08-12 06:00:00 10.8 2 Sur 11 Nordeste 0 896.5 -0.3 83
2019-08-12 05:00:00 11.6 7 Norte 20 Nordeste 0 896.5 -0.5 81
2019-08-12 04:00:00 12.3 9 Nordeste 19 Nordeste 0 896.6 -0.4 79
2019-08-12 03:00:00 12.5 7 Nordeste 24 Nordeste 0 896.8 -0.2 83
2019-08-12 02:00:00 13.1 12 Nordeste 26 Nordeste 0 897 0.3 80
2019-08-12 01:00:00 13.5 10 Nordeste 27 Nordeste 0 897 0.9 79
2019-08-12 00:00:00 14.5 14 Nordeste 27 Nordeste 0 897 1.5 75
2019-08-11 23:00:00 15.3 12 Nordeste 26 Nordeste 0 896.7 1.8 74
2019-08-11 22:00:00 17.2 11 Nordeste 22 Nordeste 0 896.1 1.4 67
2019-08-11 21:00:00 19.7 8 Nordeste 20 Nordeste 0 895.5 1.2 56
2019-08-11 20:00:00 20.8 10 Nordeste 19 Nordeste 0 894.9 0.7 52
2019-08-11 19:00:00 21.5 12 Nordeste 22 Oeste 0 894.7 0.3 50
2019-08-11 18:00:00 24.7 10 Oeste 25 Noroeste 0 894.3 -0.3 31
2019-08-11 17:00:00 24.9 14 Oeste 31 Oeste 0 894.2 -0.7 32
2019-08-11 16:00:00 26.9 9 Sudoeste 28 Oeste 0 894.4 -1 28
2019-08-11 15:00:00 25.4 6 Oeste 28 Oeste 0 894.6 -0.9 28
2019-08-11 14:00:00 25.6 13 Oeste 28 Oeste 0 894.9 -0.7 26
2019-08-11 13:00:00 24.9 14 Oeste 26 Oeste 0 895.4 -0.3 29
2019-08-11 12:00:00 23.1 6 Oeste 15 Oeste 0 895.5 0.3 36
2019-08-11 11:00:00 21.2 6 Sur 14 Sudeste 0 895.6 0.5 54
2019-08-11 10:00:00 18.5 5 Nordeste 19 Nordeste 0 895.7 0.2 68
2019-08-11 09:00:00 17 7 Norte 14 Nordeste 0 895.2 0.4 77
2019-08-11 08:00:00 16.1 4 Noroeste 26 Oeste 0.2 895.1 0.5 74
2019-08-11 07:00:00 17.4 10 Oeste 21 Noroeste 0 895.5 1 64
2019-08-11 06:00:00 16.8 4 Noroeste 9 Oeste 0 894.8 -0.3 80
2019-08-11 05:00:00 16.9 4 Oeste 9 Este 0 894.6 -1.4 78
2019-08-11 04:00:00 16.7 5 Este 12 Nordeste 0 894.5 -1.7 79
2019-08-11 03:00:00 17.3 5 Norte 13 Nordeste 0 895.1 -1.6 75
2019-08-11 02:00:00 17.3 9 Nordeste 14 Nordeste 0 896 -0.7 74
2019-08-11 01:00:00 17.8 7 Nordeste 15 Nordeste 0 896.2 -0.8 74
2019-08-11 00:00:00 18.4 4 Norte 17 Nordeste 0 896.7 0.7 73
2019-08-10 23:00:00 19.1 8 Nordeste 20 Nordeste 0 896.7 0.8 69
2019-08-10 22:00:00 20.7 12 Nordeste 26 Norte 0 897 1 62
2019-08-10 21:00:00 24.7 7 Sudeste 22 Sudeste 0 896 -0.3 43
2019-08-10 20:00:00 26.3 6 Sudoeste 17 Oeste 0 895.9 -0.8 32
2019-08-10 19:00:00 27.3 10 Sudoeste 19 Oeste 0 896 -1.5 28
2019-08-10 18:00:00 28.3 8 Sudoeste 24 Sudoeste 0 896.3 -1.6 29
2019-08-10 17:00:00 27.9 6 Oeste 25 Oeste 0 896.7 -1.6 32
2019-08-10 16:00:00 27 13 Sudoeste 30 Sudoeste 0 897.5 -1.1 33
2019-08-10 15:00:00 25.5 7 Sudoeste 24 Sur 0 897.9 -0.9 37
2019-08-10 14:00:00 24.5 9 Oeste 23 Sur 0 898.3 -0.7 43
2019-08-10 13:00:00 23 10 Sudoeste 21 Sudoeste 0 898.6 -0.2 48
2019-08-10 12:00:00 21.8 5 Sur 14 Oeste 0 898.8 0.3 52
2019-08-10 11:00:00 20.3 6 Oeste 18 Noroeste 0 899 0.7 57
2019-08-10 10:00:00 17.7 4 Este 10 Sudeste 0 898.8 0.7 73
2019-08-10 09:00:00 14.5 2 Norte 6 Norte 0 898.5 1 86
2019-08-10 08:00:00 13 2 Oeste 9 Oeste 0 898.3 1.1 90
2019-08-10 07:00:00 13.1 4 Sudoeste 8 Sudoeste 0 898.1 1 91
2019-08-10 06:00:00 13.2 2 Norte 8 Norte 0 897.5 0.6 90
2019-08-10 05:00:00 13.7 4 Norte 9 Nordeste 0 897.2 -0.1 87
2019-08-10 04:00:00 14.8 4 Sudoeste 22 Noroeste 0 897.1 -0.3 81
2019-08-10 03:00:00 15.2 12 Noroeste 26 Oeste 0 896.9 -0.5 78
2019-08-10 02:00:00 15.5 11 Oeste 23 Oeste 0 897.3 -0.1 76
2019-08-10 01:00:00 16 12 Oeste 24 Noroeste 0 897.4 0.3 79
2019-08-10 00:00:00 17.2 8 Oeste 17 Oeste 0 897.4 0.7 76
2019-08-09 23:00:00 17.4 6 Noroeste 22 Oeste 0 897.4 2.3 75
2019-08-09 22:00:00 18.5 11 Norte 29 Noroeste 0 897.1 2.6 71
2019-08-09 21:00:00 19.9 19 Oeste 39 Oeste 0.6 896.7 2.1 58
2019-08-09 20:00:00 23.1 10 Noroeste 37 Oeste 0 895.1 1.2 63
2019-08-09 19:00:00 24.3 7 Noroeste 26 Sudoeste 0.6 894.5 0.3 77
2019-08-09 18:00:00 25.5 16 Sudoeste 36 Sudoeste 2 894.6 0.2 65
2019-08-09 17:00:00 29.7 17 Oeste 33 Oeste 0 893.9 -0.9 41
2019-08-09 16:00:00 30.1 12 Sudoeste 33 Oeste 0 894.2 -0.6 37
2019-08-09 15:00:00 29.5 17 Sudoeste 37 Oeste 0 894.4 -0.4 37
2019-08-09 14:00:00 29.6 19 Sudoeste 42 Oeste 0 894.8 0 35
2019-08-09 13:00:00 28.3 18 Oeste 40 Oeste 0 894.8 0.2 38
2019-08-09 12:00:00 26.7 13 Sudoeste 24 Oeste 0 894.8 0.3 40
2019-08-09 11:00:00 25 12 Sudoeste 20 Oeste 0 894.8 0.5 49
2019-08-09 10:00:00 23.1 5 Sudoeste 11 Oeste 0 894.6 0.3 56
2019-08-09 09:00:00 20.6 4 Sudoeste 7 Sudoeste 0 894.5 0.6 63
2019-08-09 08:00:00 17.7 3 Sudoeste 5 Sudoeste 0 894.3 0.7 69
2019-08-09 07:00:00 18.2 4 Sudoeste 12 Sudoeste 0 894.3 0.5 67
2019-08-09 06:00:00 19.2 6 Sudoeste 9 Oeste 0 893.9 -0.1 63
2019-08-09 05:00:00 19.9 5 Oeste 13 Oeste 0 893.6 -0.5 61
2019-08-09 04:00:00 20.8 8 Oeste 13 Oeste 0 893.8 -0.1 54
2019-08-09 03:00:00 21.3 9 Oeste 14 Oeste 0 894 0.4 52
2019-08-09 02:00:00 22.4 8 Oeste 15 Oeste 0 894.1 0.8 48
2019-08-09 01:00:00 23.7 12 Oeste 20 Sudoeste 0 893.9 1.2 44
2019-08-09 00:00:00 24.6 8 Sudoeste 21 Sudoeste 0 893.6 1.3 41
2019-08-08 23:00:00 25.8 10 Sudoeste 25 Sudoeste 0 893.3 1.1 38
2019-08-08 22:00:00 26.4 12 Sur 24 Sur 0 892.7 0.3 40
2019-08-08 21:00:00 28 11 Sudoeste 23 Sudoeste 0 892.3 -0.5 38
2019-08-08 20:00:00 29.2 13 Oeste 24 Oeste 0 892.2 -0.9 36
2019-08-08 19:00:00 29.6 7 Sudoeste 22 Oeste 0 892.4 -1.1 37
2019-08-08 18:00:00 30.2 12 Sudoeste 25 Oeste 0 892.8 -1.3 36
2019-08-08 17:00:00 28.8 10 Oeste 26 Oeste 0 893.1 -1.1 39
2019-08-08 16:00:00 29.1 12 Oeste 24 Sur 0 893.5 -1 38
2019-08-08 15:00:00 28.8 13 Oeste 33 Oeste 0 894.1 -0.8 39
2019-08-08 14:00:00 27.8 14 Sudoeste 32 Oeste 0 894.2 -0.5 41
2019-08-08 13:00:00 26.2 14 Oeste 32 Oeste 0 894.5 -0.1 45
2019-08-08 12:00:00 24.7 17 Oeste 32 Oeste 0 894.9 0.3 49
2019-08-08 11:00:00 23.1 15 Oeste 32 Oeste 0 894.7 0.2 51
2019-08-08 10:00:00 21.3 14 Oeste 24 Oeste 0 894.6 0.1 59
2019-08-08 09:00:00 18.4 13 Oeste 22 Sudoeste 0 894.6 0.3 65
2019-08-08 08:00:00 16 6 Sudoeste 17 Oeste 0 894.5 0.1 72
2019-08-08 07:00:00 15.6 7 Sudoeste 14 Oeste 0 894.5 0.3 74
2019-08-08 06:00:00 16 7 Oeste 14 Sudoeste 0 894.3 0 73
2019-08-08 05:00:00 16.5 4 Sudoeste 11 Oeste 0 894.4 0.1 69
2019-08-08 04:00:00 17.3 6 Oeste 9 Sudoeste 0 894.2 -0.3 66
2019-08-08 03:00:00 17.8 0 Calma 8 Oeste 0 894.3 -0.2 62
2019-08-08 02:00:00 18.3 3 Sudoeste 9 Oeste 0 894.3 0.2 60
2019-08-08 01:00:00 19 5 Sudoeste 11 Sudoeste 0 894.5 0.8 57
2019-08-08 00:00:00 19.7 6 Sudoeste 12 Sudoeste 0 894.5 1.3 54
2019-08-07 23:00:00 20.1 5 Sudoeste 15 Oeste 0 894.1 1.1 52
2019-08-07 22:00:00 21.3 9 Sudoeste 22 Oeste 0 893.7 0.7 48
2019-08-07 21:00:00 23 10 Oeste 30 Oeste 0 893.2 0.2 39
2019-08-07 20:00:00 23.7 15 Oeste 34 Oeste 0 893 -0.5 37
2019-08-07 19:00:00 25.2 15 Sudoeste 28 Sudoeste 0 893 -0.7 38
2019-08-07 18:00:00 25.1 15 Sudoeste 28 Oeste 0 893 -0.5 34
2019-08-07 17:00:00 24.1 14 Sudoeste 32 Sudoeste 0 893.5 0.2 49
2019-08-07 16:00:00 25.3 15 Sudoeste 28 Sudoeste 0 893.7 0.5 42
2019-08-07 15:00:00 25.6 15 Oeste 29 Oeste 0 893.5 0.4 39
2019-08-07 14:00:00 26.5 14 Oeste 30 Oeste 0 893.3 0.4 37
2019-08-07 13:00:00 27 13 Oeste 29 Oeste 0 893.2 0.5 36
2019-08-07 12:00:00 26.6 8 Oeste 21 Oeste 0 893.1 0.7 39
2019-08-07 11:00:00 25.6 11 Noroeste 20 Sudoeste 0 892.9 0.9 41
2019-08-07 10:00:00 22.8 5 Sudoeste 10 Sudoeste 0 892.7 1.2 56
2019-08-07 09:00:00 19.1 4 Sudoeste 8 Sudoeste 0 892.4 1.2 78
2019-08-07 08:00:00 17.5 3 Sudeste 8 Nordeste 0 892 0.9 82
2019-08-07 07:00:00 17.8 2 Norte 8 Norte 0 891.5 0.4 81
2019-08-07 06:00:00 18.9 3 Norte 6 Nordeste 0 891.2 0 78
2019-08-07 05:00:00 19.9 4 Sur 8 Sudoeste 0 891.1 -0.8 75
2019-08-07 04:00:00 19.6 4 Nordeste 10 Este 0 891.1 -0.9 76
2019-08-07 03:00:00 20.1 5 Este 12 Este 0 891.2 -0.6 75
2019-08-07 02:00:00 21 5 Nordeste 13 Nordeste 0 891.9 0.1 71
2019-08-07 01:00:00 21.9 5 Este 15 Nordeste 0 892 0.7 61
2019-08-07 00:00:00 23 8 Norte 16 Nordeste 0 891.8 0.6 52
2019-08-06 23:00:00 23.7 6 Norte 17 Norte 0 891.8 1 50
2019-08-06 22:00:00 25.1 8 Norte 23 Norte 0 891.3 0.2 47
2019-08-06 21:00:00 26.5 8 Nordeste 26 Nordeste 0 891.2 -0.2 44
2019-08-06 20:00:00 30.7 3 Norte 15 Norte 0 890.8 -0.9 22
2019-08-06 19:00:00 32.2 5 Noroeste 21 Oeste 0 891.1 -1.4 21
2019-08-06 18:00:00 31.6 13 Oeste 27 Sudoeste 0 891.4 -1.5 20
2019-08-06 17:00:00 32.5 10 Oeste 22 Sur 0 891.7 -1.9 20
2019-08-06 16:00:00 31.5 6 Oeste 28 Oeste 0 892.5 -1.3 23
2019-08-06 15:00:00 31.1 11 Sudoeste 22 Sudoeste 0 892.9 -1.1 24
2019-08-06 14:00:00 30.5 10 Oeste 27 Sudoeste 0 893.6 -0.4 24
2019-08-06 13:00:00 29.6 8 Sudoeste 24 Oeste 0 893.8 -0.5 28
2019-08-06 12:00:00 28.9 8 Sudoeste 16 Sur 0 894 -0.3 30
2019-08-06 11:00:00 26 4 Oeste 12 Oeste 0 894 -0.1 45
2019-08-06 10:00:00 22.7 5 Sudoeste 9 Oeste 0 894.3 0.3 57
2019-08-06 09:00:00 19.2 0 Calma 8 Nordeste 0 894.3 0.5 69
2019-08-06 08:00:00 16.3 3 Norte 6 Norte 0 894.1 0.3 80
2019-08-06 07:00:00 16.2 3 Norte 10 Noroeste 0 894 0.1 79
2019-08-06 06:00:00 16.3 3 Este 5 Sudeste 0 893.8 -0.3 75
2019-08-06 05:00:00 17.6 2 Este 8 Norte 0 893.8 -0.4 70
2019-08-06 04:00:00 18.9 2 Norte 10 Nordeste 0 893.9 -0.2 70
2019-08-06 03:00:00 20 6 Nordeste 12 Nordeste 0 894.1 0.2 63
2019-08-06 02:00:00 20.9 5 Nordeste 12 Nordeste 0 894.2 0.4 64
2019-08-06 01:00:00 21.9 7 Nordeste 13 Nordeste 0 894.1 0.4 57
2019-08-06 00:00:00 23.4 6 Nordeste 14 Este 0 893.9 0.6 52
2019-08-05 23:00:00 23.9 10 Nordeste 17 Este 0 893.8 1.1 51
2019-08-05 22:00:00 25.2 7 Nordeste 18 Nordeste 0 893.7 1.1 48
2019-08-05 21:00:00 26.7 8 Nordeste 32 Nordeste 0 893.3 0.4 43
2019-08-05 20:00:00 30.6 9 Noroeste 27 Nordeste 0 892.7 -0.6 29
2019-08-05 19:00:00 33.4 11 Sur 21 Sudeste 0 892.6 -1.3 16
2019-08-05 18:00:00 34 9 Sudoeste 25 Oeste 0 892.9 -1.3 17
2019-08-05 17:00:00 33.5 8 Sudoeste 24 Oeste 0 893.3 -1.4 19
2019-08-05 16:00:00 32.8 8 Sudoeste 25 Sudoeste 0 893.9 -1.2 19
2019-08-05 15:00:00 31.9 12 Oeste 24 Sur 0 894.2 -1.3 20
2019-08-05 14:00:00 31.1 10 Sudoeste 20 Sur 0 894.7 -1.1 26
2019-08-05 13:00:00 29.4 4 Noroeste 15 Sur 0 895.1 -0.9 37
2019-08-05 12:00:00 27.1 5 Sur 10 Sur 0 895.5 -0.5 44
2019-08-05 11:00:00 24.8 5 Sudoeste 11 Sur 0 895.8 -0.1 51
2019-08-05 10:00:00 22.3 4 Sur 10 Sur 0 896 0.2 63
2019-08-05 09:00:00 18.9 4 Este 8 Norte 0 896 0.6 71
2019-08-05 08:00:00 16.3 3 Nordeste 6 Norte 0 895.9 0.5 79
2019-08-05 07:00:00 16.6 3 Norte 5 Sur 0 895.8 0.4 83
2019-08-05 06:00:00 16.5 0 Calma 5 Norte 0 895.4 0 82
2019-08-05 05:00:00 17.3 3 Norte 5 Nordeste 0 895.4 -0.1 76
2019-08-05 04:00:00 18.1 3 Nordeste 7 Nordeste 0 895.4 -0.2 75
2019-08-05 03:00:00 19.3 3 Nordeste 11 Nordeste 0 895.4 0 73
2019-08-05 02:00:00 20.1 6 Nordeste 17 Nordeste 0 895.5 0.2 75
2019-08-05 01:00:00 21.8 9 Nordeste 16 Nordeste 0 895.6 0.7 65
2019-08-05 00:00:00 22.6 4 Nordeste 13 Nordeste 0 895.4 1 55
2019-08-04 23:00:00 23.7 9 Nordeste 14 Nordeste 0 895.3 1.7 54
2019-08-04 22:00:00 25.7 8 Nordeste 20 Nordeste 0 894.9 1.6 47
2019-08-04 21:00:00 27.8 10 Este 26 Nordeste 0 894.4 1 41
2019-08-04 20:00:00 31.2 8 Sur 15 Sur 0 893.6 0.1 18
2019-08-04 19:00:00 32.4 5 Oeste 15 Sur 0 893.3 -0.6 17
2019-08-04 18:00:00 32.5 6 Sudoeste 27 Sudoeste 0 893.4 -0.9 18
2019-08-04 17:00:00 33.5 10 Sudoeste 26 Oeste 0 893.5 -1.3 16
2019-08-04 16:00:00 33.1 9 Oeste 28 Sudoeste 0 893.9 -1.3 16
2019-08-04 15:00:00 32 6 Oeste 28 Oeste 0 894.3 -1.2 19
2019-08-04 14:00:00 30.9 12 Sudoeste 27 Sur 0 894.8 -0.8 22
2019-08-04 13:00:00 29.4 9 Sudoeste 19 Sudoeste 0 895.2 -0.4 30
2019-08-04 12:00:00 27.5 5 Sur 14 Sur 0 895.5 0.1 39
2019-08-04 11:00:00 24.8 4 Este 9 Sudoeste 0 895.6 0.5 46
2019-08-04 10:00:00 22.4 4 Sur 8 Sudeste 0 895.6 0.6 61
2019-08-04 09:00:00 19.1 3 Este 6 Nordeste 0 895.4 0.6 67
2019-08-04 08:00:00 16.1 0 Calma 4 Noroeste 0 895.1 0.5 74
2019-08-04 07:00:00 16.2 3 Norte 6 Nordeste 0 895 0.7 72
2019-08-04 06:00:00 17.4 2 Norte 6 Nordeste 0 894.8 0.5 67
2019-08-04 05:00:00 18.2 2 Oeste 12 Nordeste 0 894.6 0.2 65
2019-08-04 04:00:00 19.2 5 Nordeste 10 Nordeste 0 894.3 -0.2 63
2019-08-04 03:00:00 20.2 2 Nordeste 10 Nordeste 0 894.3 -0.1 63
2019-08-04 02:00:00 21.4 6 Nordeste 20 Nordeste 0 894.4 0.1 58
2019-08-04 01:00:00 21.9 8 Nordeste 16 Norte 0 894.5 0.6 54
2019-08-04 00:00:00 23.3 8 Nordeste 16 Nordeste 0 894.4 1.1 43
2019-08-03 23:00:00 23.4 6 Norte 14 Nordeste 0 894.3 1.3 41
2019-08-03 22:00:00 24.9 7 Nordeste 18 Este 0 893.9 1.2 39
2019-08-03 21:00:00 26.7 9 Nordeste 24 Nordeste 0 893.3 0.3 35
2019-08-03 20:00:00 28.2 13 Nordeste 27 Nordeste 0 893 -0.2 32
2019-08-03 19:00:00 31.2 10 Nordeste 24 Nordeste 0 892.7 -0.9 26
2019-08-03 18:00:00 31.7 9 Sur 23 Sudoeste 0 893 -1.1 21
2019-08-03 17:00:00 32.2 5 Sudoeste 23 Sur 0 893.2 -1.5 19
2019-08-03 16:00:00 33.4 10 Sur 20 Oeste 0 893.6 -1.7 21
2019-08-03 15:00:00 32.5 9 Sudoeste 29 Sudoeste 0 894.1 -1.5 22
2019-08-03 14:00:00 30.8 8 Sudoeste 20 Oeste 0 894.7 -1 24
2019-08-03 13:00:00 29.2 6 Sur 15 Sudeste 0 895.3 -0.6 30
2019-08-03 12:00:00 27.1 9 Este 15 Sudeste 0 895.6 -0.3 34
2019-08-03 11:00:00 25.4 5 Sudeste 10 Sur 0 895.7 -0.2 35
2019-08-03 10:00:00 22.2 3 Nordeste 9 Este 0 895.9 0.1 44
2019-08-03 09:00:00 17.8 5 Nordeste 9 Nordeste 0 895.9 0.2 57
2019-08-03 08:00:00 13.9 2 Norte 9 Nordeste 0 895.9 0.1 71
2019-08-03 07:00:00 13.9 2 Sudeste 5 Norte 0 895.8 -0.1 70
2019-08-03 06:00:00 14.6 0 Calma 5 Este 0 895.7 -0.5 68
2019-08-03 05:00:00 15.3 3 Sudeste 9 Nordeste 0 895.8 -0.7 67
2019-08-03 04:00:00 16.4 4 Sudeste 8 Nordeste 0 895.9 -0.7 64
2019-08-03 03:00:00 18.2 6 Nordeste 13 Nordeste 0 896.2 -0.4 58
2019-08-03 02:00:00 19.7 7 Nordeste 18 Nordeste 0 896.5 -0.2 53
2019-08-03 01:00:00 19.9 8 Nordeste 14 Nordeste 0 896.6 0.5 53
2019-08-03 00:00:00 20.2 6 Nordeste 14 Nordeste 0 896.6 1.1 53
2019-08-02 23:00:00 21.4 8 Nordeste 19 Nordeste 0 896.7 1.5 53
2019-08-02 22:00:00 23 9 Nordeste 21 Nordeste 0 896.1 1.2 47
2019-08-02 21:00:00 25 16 Nordeste 31 Nordeste 0 895.5 0.5 39
2019-08-02 20:00:00 26.8 16 Nordeste 27 Nordeste 0 895.2 0 36
2019-08-02 19:00:00 28.3 15 Nordeste 26 Este 0 894.9 -0.6 32
2019-08-02 18:00:00 28.9 12 Nordeste 32 Nordeste 0 895 -0.9 31
2019-08-02 17:00:00 31.1 5 Noroeste 19 Nordeste 0 895.2 -0.9 23
2019-08-02 16:00:00 31.7 6 Norte 19 Oeste 0 895.5 -0.9 23
2019-08-02 15:00:00 30.4 7 Sudoeste 14 Sur 0 895.9 -0.7 27
2019-08-02 14:00:00 28.8 6 Sudeste 16 Nordeste 0 896.1 -0.5 29
2019-08-02 13:00:00 27.7 6 Oeste 11 Sur 0 896.4 -0.1 31
2019-08-02 12:00:00 25.3 5 Nordeste 11 Nordeste 0 896.6 0.3 49
2019-08-02 11:00:00 22.9 4 Sudoeste 8 Sur 0 896.6 0.6 57
2019-08-02 10:00:00 20.3 3 Este 8 Sudeste 0 896.5 0.8 60
2019-08-02 09:00:00 16.8 4 Nordeste 7 Noroeste 0 896.3 0.9 73
2019-08-02 08:00:00 14.1 3 Norte 8 Norte 0 896 0.5 86
2019-08-02 07:00:00 13.9 2 Norte 4 Noroeste 0 895.7 0.2 84
2019-08-02 06:00:00 14.4 3 Este 4 Este 0 895.4 -0.2 91
2019-08-02 05:00:00 15.4 2 Norte 6 Oeste 0 895.5 -0.2 88
2019-08-02 04:00:00 16.5 4 Nordeste 11 Nordeste 0 895.5 -0.3 85
2019-08-02 03:00:00 17 6 Nordeste 10 Nordeste 0 895.6 -0.1 86
2019-08-02 02:00:00 17.6 5 Nordeste 10 Nordeste 0 895.7 0.5 85
2019-08-02 01:00:00 18.4 5 Nordeste 18 Nordeste 0 895.8 1.5 81
2019-08-02 00:00:00 19.6 10 Nordeste 21 Nordeste 0 895.7 2 76
2019-08-01 23:00:00 20.5 8 Nordeste 21 Nordeste 0 895.2 2 73
2019-08-01 22:00:00 21.9 12 Nordeste 22 Este 0 894.3 1.7 66
2019-08-01 21:00:00 23.6 13 Nordeste 28 Nordeste 0 893.7 1.4 57
2019-08-01 20:00:00 24.7 14 Nordeste 29 Nordeste 0 893.2 1.1 54
2019-08-01 19:00:00 25.9 19 Nordeste 36 Norte 0 892.6 0.1 47
2019-08-01 18:00:00 30.4 13 Oeste 31 Sudoeste 0 892.3 -0.5 19
2019-08-01 17:00:00 31.1 12 Oeste 26 Oeste 0 892.1 -1.1 20
2019-08-01 16:00:00 29.2 8 Sudoeste 19 Oeste 0 892.5 -1 30
2019-08-01 15:00:00 27.6 5 Sudeste 28 Oeste 0 892.8 -1.1 40
2019-08-01 14:00:00 27.3 5 Sudoeste 16 Sur 0 893.2 -0.6 39
2019-08-01 13:00:00 25.8 8 Sudeste 18 Sur 0 893.5 -0.4 49
2019-08-01 12:00:00 23.6 6 Sudeste 18 Este 0 893.9 0.1 56
2019-08-01 11:00:00 21.6 6 Sudeste 18 Sudeste 0 893.8 0.2 64
2019-08-01 10:00:00 20.2 9 Este 19 Este 0 893.9 0.7 71
2019-08-01 09:00:00 18.5 8 Este 16 Este 0 893.8 0.6 79
2019-08-01 08:00:00 17.2 5 Nordeste 10 Nordeste 0 893.6 0 80
2019-08-01 07:00:00 16.5 4 Este 14 Nordeste 0 893.2 -0.4 77
2019-08-01 06:00:00 17.2 8 Este 14 Nordeste 0 893.2 -0.9 73
2019-08-01 05:00:00 18.2 6 Nordeste 16 Nordeste 0 893.6 -1 70
2019-08-01 04:00:00 18.2 6 Nordeste 12 Este 0 893.6 -1.2 62
2019-08-01 03:00:00 18.3 7 Este 12 Este 0 894.1 -1.1 60
2019-08-01 02:00:00 18.5 6 Nordeste 13 Nordeste 0 894.6 -0.5 57
2019-08-01 01:00:00 18.9 6 Nordeste 17 Nordeste 0 894.8 0 56
2019-08-01 00:00:00 19.1 6 Nordeste 19 Nordeste 0 895.2 0.7 56
2019-07-31 23:00:00 19.8 7 Nordeste 15 Este 0 895.1 1.2 53
2019-07-31 22:00:00 20.7 9 Nordeste 19 Este 0 894.8 0.9 49
2019-07-31 21:00:00 22.3 11 Nordeste 23 Nordeste 0 894.5 0.5 44
2019-07-31 20:00:00 24 13 Nordeste 29 Este 0 893.9 -0.4 37
2019-07-31 19:00:00 25.5 15 Este 28 Este 0 893.9 -1.2 34
2019-07-31 18:00:00 27.3 12 Este 32 Nordeste 0 894 -1.5 32
2019-07-31 17:00:00 28.4 8 Sudeste 21 Sudeste 0 894.3 -1.7 31
2019-07-31 16:00:00 27.6 9 Sur 23 Sudeste 0 895.1 -1.3 35
2019-07-31 15:00:00 26.4 10 Sudeste 22 Este 0 895.5 -1.3 34
2019-07-31 14:00:00 25.4 9 Este 25 Este 0 896 -1 37
2019-07-31 13:00:00 23.2 8 Sudeste 18 Sudeste 0 896.4 -0.9 39
2019-07-31 12:00:00 21.2 6 Este 17 Este 0 896.8 -0.8 41
2019-07-31 11:00:00 19.3 7 Este 17 Este 0 897 -0.5 45
2019-07-31 10:00:00 16 8 Nordeste 15 Nordeste 0 897.3 -0.1 52
2019-07-31 09:00:00 13 5 Este 8 Nordeste 0 897.6 0.2 68
2019-07-31 08:00:00 10.8 4 Norte 10 Este 0 897.5 0.2 76
2019-07-31 07:00:00 9.7 3 Nordeste 9 Este 0 897.4 -0.3 80
2019-07-31 06:00:00 10.4 5 Nordeste 11 Nordeste 0 897.4 -0.4 78
2019-07-31 05:00:00 10.7 6 Nordeste 16 Nordeste 0 897.3 -0.6 77
2019-07-31 04:00:00 10.8 8 Nordeste 17 Este 0 897.7 -0.5 78
2019-07-31 03:00:00 10.8 11 Nordeste 26 Este 0 897.8 -0.4 80
2019-07-31 02:00:00 12 10 Nordeste 26 Nordeste 0 897.9 0 74
2019-07-31 01:00:00 12.2 14 Este 27 Este 0 898.2 1.1 75
2019-07-31 00:00:00 12.8 11 Este 27 Nordeste 0 898.2 1.8 73
2019-07-30 23:00:00 14.1 14 Nordeste 25 Nordeste 0 897.9 1.8 66
2019-07-30 22:00:00 15.7 10 Nordeste 30 Nordeste 0 897.1 1.4 60
2019-07-30 21:00:00 17.9 16 Nordeste 32 Nordeste 0 896.4 0.6 49
2019-07-30 20:00:00 19.8 16 Nordeste 36 Nordeste 0 896.1 0.2 44
2019-07-30 19:00:00 21.7 15 Nordeste 36 Nordeste 0 895.7 -0.5 40
2019-07-30 18:00:00 23.5 15 Nordeste 28 Nordeste 0 895.8 -0.8 34
2019-07-30 17:00:00 25.2 8 Este 17 Sudeste 0 895.9 -0.9 21
2019-07-30 16:00:00 24.8 8 Sudoeste 20 Sudoeste 0 896.2 -0.8 25
2019-07-30 15:00:00 23.7 6 Sur 16 Sur 0 896.6 -0.6 27
2019-07-30 14:00:00 21.9 9 Este 19 Nordeste 0 896.8 -0.3 34
2019-07-30 13:00:00 20.8 9 Nordeste 21 Nordeste 0 897 -0.1 34
2019-07-30 12:00:00 20.3 5 Norte 17 Nordeste 0 897.2 0.5 34
2019-07-30 11:00:00 18.3 3 Sudoeste 12 Noroeste 0 897.1 0.9 51
2019-07-30 10:00:00 16.5 6 Norte 14 Nordeste 0 897.1 1.4 60
2019-07-30 09:00:00 13.7 6 Nordeste 12 Nordeste 0 896.7 1.4 72
2019-07-30 08:00:00 11.7 2 Sudeste 7 Este 0 896.2 1.3 83
2019-07-30 07:00:00 11.2 0 Calma 7 Este 0 895.7 1.2 85
2019-07-30 06:00:00 11.6 3 Sudeste 8 Este 0 895.3 0.8 84
2019-07-30 05:00:00 12.4 4 Este 10 Norte 0 894.9 0.7 82
2019-07-30 04:00:00 13.2 3 Este 12 Este 0 894.5 0.6 83
2019-07-30 03:00:00 14.1 6 Este 27 Nordeste 0 894.5 0.8 79
2019-07-30 02:00:00 15 16 Nordeste 27 Nordeste 0 894.2 1.1 72
2019-07-30 01:00:00 17.8 4 Oeste 9 Oeste 0 893.9 1.8 31
2019-07-30 00:00:00 19.3 2 Nordeste 22 Oeste 0 893.7 2.1 32
2019-07-29 23:00:00 21.5 9 Oeste 23 Oeste 0 893.1 2 26
2019-07-29 22:00:00 22.6 7 Oeste 22 Oeste 0 892.1 1.2 26
2019-07-29 21:00:00 24.9 10 Noroeste 27 Oeste 0 891.6 0.6 32
2019-07-29 20:00:00 27.2 9 Noroeste 22 Noroeste 0 891.1 0 27
2019-07-29 19:00:00 29.1 12 Oeste 26 Oeste 0 890.9 -0.4 23
2019-07-29 18:00:00 29.1 13 Oeste 33 Oeste 0 891 -0.5 23
2019-07-29 17:00:00 28.9 8 Oeste 30 Oeste 0 891.1 -0.7 25
2019-07-29 16:00:00 28.3 14 Sudoeste 31 Oeste 0 891.3 -0.9 26
2019-07-29 15:00:00 27.6 17 Oeste 30 Oeste 0 891.5 -0.8 26
2019-07-29 14:00:00 26.5 11 Sudoeste 31 Oeste 0 891.8 -0.4 26
2019-07-29 13:00:00 25.5 9 Oeste 21 Oeste 0 892.2 0.1 27
2019-07-29 12:00:00 23.8 8 Sudoeste 18 Sudoeste 0 892.3 0.2 29
2019-07-29 11:00:00 21.4 6 Oeste 14 Sudoeste 0 892.2 0.3 45
2019-07-29 10:00:00 18.4 4 Sur 8 Sur 0 892.1 0.4 57
2019-07-29 09:00:00 14.2 3 Norte 6 Norte 0 892.1 0.5 68
2019-07-29 08:00:00 10.8 3 Norte 6 Noroeste 0 891.9 0.3 81
2019-07-29 07:00:00 9.8 0 Calma 6 Nordeste 0 891.7 0.1 84
2019-07-29 06:00:00 10.2 4 Norte 8 Nordeste 0 891.6 -0.1 83
2019-07-29 05:00:00 10.1 3 Sudeste 6 Norte 0 891.6 -0.2 85
2019-07-29 04:00:00 11.3 0 Calma 4 Nordeste 0 891.6 -0.2 80
2019-07-29 03:00:00 12.7 2 Norte 5 Este 0 891.7 0 77
2019-07-29 02:00:00 13.9 2 Norte 7 Noroeste 0 891.8 0.1 72
2019-07-29 01:00:00 15.1 2 Sudeste 12 Sur 0 891.8 0.6 68
2019-07-29 00:00:00 15.8 3 Norte 6 Nordeste 0 891.7 0.8 65
2019-07-28 23:00:00 17 3 Nordeste 10 Nordeste 0 891.7 1.5 60
2019-07-28 22:00:00 18.7 5 Nordeste 18 Nordeste 0 891.2 1.3 53
2019-07-28 21:00:00 21 9 Este 21 Oeste 0 890.9 0.9 46
2019-07-28 20:00:00 25.2 8 Noroeste 18 Noroeste 0 890.2 -0.2 19
2019-07-28 19:00:00 26.1 9 Oeste 25 Oeste 0 889.9 -1.1 21
2019-07-28 18:00:00 26 8 Oeste 23 Oeste 0 890 -1.4 23
2019-07-28 17:00:00 25.4 10 Sudoeste 27 Sudoeste 0 890.4 -1.4 26
2019-07-28 16:00:00 24 9 Sur 19 Sudoeste 0 891 -1.1 30
2019-07-28 15:00:00 22.2 5 Oeste 17 Norte 0 891.4 -1 37
2019-07-28 14:00:00 20.9 5 Sur 17 Norte 0 891.8 -1.1 44
2019-07-28 13:00:00 19.6 5 Nordeste 21 Este 0 892.1 -0.8 49
2019-07-28 12:00:00 18.1 5 Sur 13 Sur 0 892.4 -0.1 53
2019-07-28 11:00:00 16.2 4 Oeste 11 Oeste 0 892.9 0.8 58
2019-07-28 10:00:00 14.7 3 Noroeste 9 Noroeste 0 892.9 0.9 67
2019-07-28 09:00:00 12.1 2 Sudoeste 6 Sudoeste 0 892.5 0.8 75
2019-07-28 08:00:00 9.6 3 Sudeste 5 Este 0 892.1 0.1 87
2019-07-28 07:00:00 9.3 0 Calma 8 Oeste 0 892 0.1 84
2019-07-28 06:00:00 10.2 3 Sudoeste 19 Nordeste 0 891.7 -0.3 82
2019-07-28 05:00:00 11 7 Norte 24 Norte 0 892 -0.1 78
2019-07-28 04:00:00 11.1 8 Nordeste 14 Nordeste 0 891.9 -0.1 79
2019-07-28 03:00:00 11.6 4 Nordeste 13 Noroeste 0 892 0.2 79
2019-07-28 02:00:00 11.3 3 Norte 7 Nordeste 0 892.1 0.4 82
2019-07-28 01:00:00 11.5 0 Calma 8 Norte 0 892 1.2 81
2019-07-28 00:00:00 12 2 Norte 10 Este 0 891.8 1.6 80
2019-07-27 23:00:00 12.4 3 Este 11 Norte 0 891.7 1.8 80
2019-07-26 12:00:00 22.5 9 Sur 19 Sudoeste 0 893 0.1 60
2019-07-26 11:00:00 21.4 10 Sur 20 Sur 0 892.8 -0.5 60
2019-07-26 10:00:00 18.6 5 Noroeste 25 Nordeste 0.2 892.7 -0.5 80
2019-07-26 09:00:00 17.9 8 Sur 23 Este 0.4 892.9 -0.2 85
2019-07-26 08:00:00 18.4 9 Oeste 22 Oeste 0 893.3 0.3 78
2019-07-26 07:00:00 18.4 5 Nordeste 18 Oeste 0.2 893.2 0.2 76
2019-07-26 06:00:00 18.3 7 Nordeste 21 Noroeste 0 893.1 0.1 75
2019-07-26 05:00:00 19.8 5 Norte 13 Oeste 0 893 0 62
2019-07-26 04:00:00 20.4 6 Norte 14 Norte 0 893 -0.2 59
2019-07-26 03:00:00 21.7 6 Este 17 Nordeste 0 893 -0.4 48
2019-07-26 02:00:00 23.2 3 Noroeste 16 Sur 0 893 -0.4 44
2019-07-26 01:00:00 23.8 7 Sur 12 Sur 0 893.2 0.4 43
2019-07-26 00:00:00 25.2 7 Sur -- -- -- 893.4 0.7 38
2019-07-25 23:00:00 26.2 6 Este 14 Oeste 0 893.4 1 34
2019-07-25 22:00:00 28.3 10 Sudoeste 22 Sudoeste 0 892.8 0.3 23
2019-07-25 21:00:00 29.5 9 Sudoeste 26 Sudoeste 0 892.7 0 20
2019-07-25 20:00:00 31 14 Sur 29 Sur 0 892.4 -0.9 18
2019-07-25 19:00:00 31.8 16 Sudoeste 35 Sudoeste 0 892.5 -1 17
2019-07-25 18:00:00 32.6 17 Sudoeste 33 Sudoeste 0 892.7 -1.3 19
2019-07-25 17:00:00 32.6 14 Sudoeste 37 Sudoeste 0 893.3 -0.8 22
2019-07-25 16:00:00 32.8 15 Sudoeste 40 Sudoeste 0 893.5 -1.2 22
2019-07-25 15:00:00 32.5 16 Sur 35 Sur 0 894 -1 23
2019-07-25 14:00:00 32 13 Sur 26 Oeste 0 894.1 -1.1 25
2019-07-25 13:00:00 30.3 9 Sudoeste 16 Sur 0 894.7 -0.8 31
2019-07-25 12:00:00 28.4 4 Sur 14 Sur 0 895 -0.5 34
2019-07-25 11:00:00 26.6 5 Sur 13 Sur 0 895.2 -0.2 36
2019-07-25 10:00:00 24.2 4 Sudeste 6 Este 0 895.5 0.4 42
2019-07-25 09:00:00 19.9 0 Calma 5 Norte 0 895.5 0.7 59
2019-07-25 08:00:00 16.6 0 Calma 8 Este 0 895.4 0.5 69
2019-07-25 07:00:00 17.1 4 Este 6 Este 0 895.1 0 61
2019-07-25 06:00:00 17.6 3 Sudeste 6 Este 0 894.8 -0.4 57
2019-07-25 05:00:00 18.5 3 Este 7 Este 0 894.9 -0.3 56
2019-07-25 04:00:00 19.5 2 Sudeste 8 Nordeste 0 895.1 -0.3 52
2019-07-25 03:00:00 21.8 5 Este 12 Sur 0 895.2 0 46
2019-07-25 02:00:00 24 6 Sur 14 Sur 0 895.2 0 35
2019-07-25 01:00:00 25.5 9 Sur 21 Sur 0 895.4 0.7 32
2019-07-25 00:00:00 26.4 10 Sur 17 Sur 0 895.2 0.9 30
2019-07-24 23:00:00 27.1 8 Sur 17 Sudeste 0 895.2 1.1 28
2019-07-24 22:00:00 27.9 8 Sudeste 21 Sudeste 0 894.7 0.6 26
2019-07-24 21:00:00 30.3 5 Sudoeste 18 Sur 0 894.3 -0.3 23
2019-07-24 20:00:00 31.9 10 Sur 31 Sudoeste 0 894.1 -0.9 21
2019-07-24 19:00:00 33.1 14 Sur 27 Sudoeste 0 894.1 -1.5 18
2019-07-24 18:00:00 32.6 13 Sur 32 Sur 0 894.6 -1.5 20
2019-07-24 17:00:00 33.1 10 Sudoeste 26 Sudoeste 0 895 -1.7 20
2019-07-24 16:00:00 33.1 14 Sur 27 Sudoeste 0 895.6 -1.5 21
2019-07-24 15:00:00 32.4 13 Sudoeste 23 Sudoeste 0 896.1 -1.5 22
2019-07-24 14:00:00 31.3 9 Sur 24 Sudoeste 0 896.7 -1.1 26
2019-07-24 13:00:00 30.1 5 Sudeste 14 Sur 0 897.1 -0.9 32
2019-07-24 12:00:00 28.7 6 Sur 14 Sudeste 0 897.6 -0.2 31
2019-07-24 11:00:00 26.5 4 Sudeste 10 Este 0 897.8 0.3 38
2019-07-24 10:00:00 23.4 5 Este 10 Este 0 898 0.7 51
2019-07-24 09:00:00 20.2 4 Este 9 Este 0 897.8 0.8 69
2019-07-24 08:00:00 17.8 2 Norte 6 Noroeste 0 897.5 0.1 74
2019-07-24 07:00:00 16.7 0 Calma 8 Nordeste 0 897.3 -0.1 77
2019-07-24 06:00:00 17.7 4 Nordeste 9 Norte 0 897 -0.8 75
2019-07-24 05:00:00 18.9 2 Nordeste 6 Sur 0 897.4 -1.2 66
2019-07-24 04:00:00 19.6 0 Calma 6 Nordeste 0 897.4 -1.3 67
2019-07-24 03:00:00 21.4 0 Calma 13 Noroeste 0 897.8 -0.6 55
2019-07-24 02:00:00 22.7 4 Noroeste 11 Oeste 0 898.6 0.3 45
2019-07-24 01:00:00 24.2 4 Sudoeste 14 Sudoeste 0 898.7 2.1 40
2019-07-24 00:00:00 25.3 6 Sudoeste 19 Sudoeste 0 898.4 2.1 35
2019-07-23 23:00:00 25.2 9 Sudoeste 22 Sudeste 0 898.3 2.2 35
2019-07-23 22:00:00 26.6 10 Sudeste 23 Sudeste 0 896.6 0.8 32
2019-07-23 21:00:00 26.3 6 Este 14 Nordeste 0 896.3 0.3 47
2019-07-23 20:00:00 28.4 10 Este 23 Este 0 896.1 -0.4 35
2019-07-23 19:00:00 27.4 21 Sudeste 53 Sudoeste 1.8 895.8 -1.4 41
2019-07-23 18:00:00 33.4 12 Sudoeste 33 Sur 0 896 -1.9 19
2019-07-23 17:00:00 34.1 13 Sudoeste 30 Sur 0 896.5 -2 18
2019-07-23 16:00:00 33.8 15 Sudoeste 28 Sur 0 897.2 -1.6 20
2019-07-23 15:00:00 32.2 8 Sudoeste 26 Sudoeste 0 897.9 -1.2 21
2019-07-23 14:00:00 31 9 Sur 23 Sur 0 898.5 -0.9 27
2019-07-23 13:00:00 29.8 6 Nordeste 13 Este 0 898.8 -0.8 30
2019-07-23 12:00:00 28.4 5 Sudeste 14 Sudoeste 0 899.1 -0.7 31
2019-07-23 11:00:00 27.5 6 Oeste 13 Sudoeste 0 899.4 -0.3 31
2019-07-23 10:00:00 24.4 7 Sur 10 Sur 0 899.6 0.3 42
2019-07-23 09:00:00 20.2 3 Sudeste 11 Oeste 0 899.8 0.6 58
2019-07-23 08:00:00 17.1 0 Calma 8 Nordeste 0 899.7 0.3 67
2019-07-23 07:00:00 16.4 0 Calma 4 Noroeste 0 899.3 -0.3 67
2019-07-23 06:00:00 17.1 3 Norte 5 Noroeste 0 899.2 -0.5 66
2019-07-23 05:00:00 18.3 0 Calma 7 Nordeste 0 899.4 -0.5 60
2019-07-23 04:00:00 18.8 3 Este 8 Este 0 899.6 -0.5 58
2019-07-23 03:00:00 19.9 2 Noroeste 6 Nordeste 0 899.7 -0.1 57
2019-07-23 02:00:00 20.9 2 Sudeste 8 Este 0 899.9 0.5 51
2019-07-23 01:00:00 22.7 2 Este 5 Este 0 900.1 1.1 45
2019-07-23 00:00:00 24.6 2 Sudeste 6 Noroeste 0 899.8 1.2 40
2019-07-22 23:00:00 27 3 Sur 16 Sudoeste 0 899.4 1 30
2019-07-22 22:00:00 28.4 7 Sudeste 23 Sudeste 0 899 0.4 27
2019-07-22 21:00:00 30.4 9 Sudeste 18 Sudeste 0 898.6 -0.2 22
2019-07-22 20:00:00 31.3 7 Sudeste 38 Sur 0 898.4 -1.2 22
2019-07-22 19:00:00 33.9 14 Sudeste 36 Sudeste 0 898.6 -1.5 20
2019-07-22 18:00:00 33.8 10 Sudeste 26 Sudeste 0 898.8 -1.9 21
2019-07-22 17:00:00 33.3 10 Sur 26 Sur 0 899.6 -1.5 22
2019-07-22 16:00:00 32.7 12 Sudeste 24 Sudeste 0 900.1 -1.3 25
2019-07-22 15:00:00 32.2 12 Sudeste 27 Sudeste 0 900.7 -1 26
2019-07-22 14:00:00 31.5 10 Sur 23 Sudeste 0 901.1 -0.7 25
2019-07-22 13:00:00 30 10 Sur 20 Sur 0 901.4 -0.5 27
2019-07-22 12:00:00 28.2 8 Sur 15 Sur 0 901.7 -0.2 34
2019-07-22 11:00:00 25.6 6 Este 12 Nordeste 0 901.8 0 51
2019-07-22 10:00:00 22.9 6 Nordeste 10 Norte 0 901.9 0.4 62
2019-07-22 09:00:00 19.4 5 Este 11 Este 0 901.9 0.3 76
2019-07-22 08:00:00 16.9 3 Este 6 Este 0 901.8 0 87
2019-07-22 07:00:00 17.2 4 Nordeste 9 Nordeste 0 901.5 -0.1 84
2019-07-22 06:00:00 17.9 2 Este 11 Nordeste 0 901.6 0.2 85
2019-07-22 05:00:00 19.1 0 Calma 6 Norte 0 901.8 0.4 79
2019-07-22 04:00:00 20 3 Norte 5 Oeste 0 901.6 0 74
2019-07-22 03:00:00 20.8 0 Calma 10 Noroeste 0 901.4 -0.6 69
2019-07-22 02:00:00 21.6 6 Norte 16 Nordeste 0 901.4 0.2 66
2019-07-22 01:00:00 22 5 Norte 15 Nordeste 0 901.6 1.3 67
2019-07-22 00:00:00 20.5 2 Este 12 Nordeste 0 902 2.2 73
2019-07-21 23:00:00 20.8 10 Nordeste 19 Norte 0 901.2 2 66
2019-07-21 22:00:00 19.4 8 Nordeste 21 Norte 0 900.3 1.6 77
2019-07-21 21:00:00 21 10 Norte 27 Norte 4 899.8 1.5 83
2019-07-21 20:00:00 24 15 Nordeste 26 Nordeste 6 899.2 0.5 67
2019-07-21 19:00:00 29.9 11 Nordeste 27 Nordeste 0 898.7 -0.4 39
2019-07-21 18:00:00 33.6 5 Este 20 Sur 0 898.3 -1.2 28
2019-07-21 17:00:00 33.1 8 Sudeste 24 Sur 0 898.7 -1.3 27
2019-07-21 16:00:00 32.8 5 Oeste 20 Sudeste 0 899.1 -1.1 29
2019-07-21 15:00:00 31.6 7 Sudeste 19 Sur 0 899.5 -0.7 32
2019-07-21 14:00:00 30.1 7 Sudeste 18 Sudeste 0 900 0 35
2019-07-21 13:00:00 28.5 8 Sur 17 Sudeste 0 900.2 0.2 38
2019-07-21 12:00:00 26.7 8 Sur 19 Sur 0 900.2 0.3 42
2019-07-21 11:00:00 24.6 7 Sudeste 15 Este 0 900 0.5 56
2019-07-21 10:00:00 22.3 8 Este 15 Nordeste 0 900 0.8 64
2019-07-21 09:00:00 19.3 4 Nordeste 9 Sudeste 0 899.9 0.9 80
2019-07-21 08:00:00 16.8 2 Nordeste 10 Este 0 899.5 0.7 89
2019-07-21 07:00:00 16.8 4 Nordeste 10 Nordeste 0 899.2 0.5 88
2019-07-21 06:00:00 17.5 5 Nordeste 10 Este 0 899 0.4 85
2019-07-21 05:00:00 17.9 5 Nordeste 10 Nordeste 0 898.8 0.3 84
2019-07-21 04:00:00 18.6 6 Nordeste 11 Nordeste 0 898.7 0.5 81
2019-07-21 03:00:00 19.5 7 Nordeste 12 Este 0 898.6 0.9 79
2019-07-21 02:00:00 20 8 Este 14 Este 0 898.5 1.3 77
2019-07-21 01:00:00 20.6 5 Este 10 Nordeste 0 898.2 1.8 74
2019-07-21 00:00:00 22.3 4 Nordeste 13 Nordeste 0 897.7 1.8 68
2019-07-20 23:00:00 24 6 Nordeste 19 Nordeste 0 897.2 1.8 60
2019-07-20 22:00:00 25.5 6 Nordeste 20 Nordeste 0 896.4 1.3 53
2019-07-20 21:00:00 26.6 10 Nordeste 22 Nordeste 0 895.9 1.1 49
2019-07-20 20:00:00 27.7 14 Nordeste 28 Nordeste 0 895.4 0.5 44
2019-07-20 19:00:00 29.8 15 Norte 34 Norte 0 895.1 -0.1 41
2019-07-20 18:00:00 32.4 9 Sudoeste 17 Sur 0 894.8 -0.6 25
2019-07-20 17:00:00 32.7 6 Sur 17 Sur 0 894.9 -0.7 26
2019-07-20 16:00:00 33.2 8 Oeste 26 Oeste 0 895.2 -0.6 25
2019-07-20 15:00:00 31.9 8 Oeste 24 Sur 0 895.4 -0.5 27
2019-07-20 14:00:00 30.8 5 Sur 17 Sur 0 895.6 -0.2 30
2019-07-20 13:00:00 29.1 8 Sur 15 Sudeste 0 895.8 0.1 38
2019-07-20 12:00:00 27.6 6 Sur 15 Sur 0 895.9 0.5 38
2019-07-20 11:00:00 25.8 5 Sudeste 13 Sur 0 895.8 0.7 44
2019-07-20 10:00:00 22.8 3 Sudeste 8 Nordeste 0 895.7 1.2 56
2019-07-20 09:00:00 19.2 3 Nordeste 6 Nordeste 0 895.4 1.3 73
2019-07-20 08:00:00 16.4 2 Norte 5 Noroeste 0 895.1 1 85
2019-07-20 07:00:00 15.9 0 Calma 6 Este 0 894.5 0.4 85
2019-07-20 06:00:00 16.4 4 Este 8 Este 0 894.1 0 84
2019-07-20 05:00:00 16.9 3 Sudeste 6 Este 0 894.1 0.1 85
2019-07-20 04:00:00 18 2 Este 10 Nordeste 0 894.1 0 79
2019-07-20 03:00:00 19.1 3 Norte 10 Este 0 894.1 0.2 74
2019-07-20 02:00:00 19.6 5 Este 10 Este 0 894 0.1 76
2019-07-20 01:00:00 20.7 2 Nordeste 11 Nordeste 0 894.1 0.7 69
2019-07-20 00:00:00 22.8 2 Noroeste 10 Este 0 893.9 0.6 58
2019-07-19 23:00:00 24.2 7 Este 17 Nordeste 0 893.9 0.5 45
2019-07-19 22:00:00 25.3 9 Este 18 Este 0 893.4 0.3 43
2019-07-19 21:00:00 25.1 6 Sudeste 16 Sudeste 0.2 893.3 -0.2 46
2019-07-19 20:00:00 26.7 9 Este 24 Este 0 893.4 -0.3 40
2019-07-19 19:00:00 28.2 8 Este 19 Norte 0.4 893.1 -1.1 39
2019-07-19 18:00:00 30.8 5 Este 13 Este 0 893.5 -1.2 32
2019-07-19 17:00:00 30.9 5 Sur 15 Sur 0 893.7 -1.7 30
2019-07-19 16:00:00 30.9 7 Sur 17 Sur 0 894.2 -1.7 30
2019-07-19 15:00:00 30.8 6 Este 15 Sudoeste 0 894.7 -1.5 32
2019-07-19 14:00:00 29 6 Sur 22 Sudoeste 0 895.4 -1.1 35
2019-07-19 13:00:00 27.3 6 Sur 15 Sudeste 0 895.9 -0.9 41
2019-07-19 12:00:00 25.7 8 Sur 14 Sudeste 0 896.2 -0.6 44
2019-07-19 11:00:00 23.7 6 Sur 12 Sur 0 896.5 -0.1 44
2019-07-19 10:00:00 20.7 3 Este 8 Este 0 896.8 0.3 50
2019-07-19 09:00:00 17 4 Nordeste 9 Nordeste 0 896.8 0.2 63
2019-07-19 08:00:00 13.8 4 Nordeste 10 Norte 0 896.6 -0.2 72
2019-07-19 07:00:00 12.4 0 Calma 5 Sudeste 0 896.5 -0.3 85
2019-07-19 06:00:00 12.7 0 Calma 4 Sudeste 0 896.6 -0.5 84
2019-07-19 05:00:00 13.8 0 Calma 5 Norte 0 896.8 -0.3 78
2019-07-19 04:00:00 15 3 Norte 8 Nordeste 0 896.8 -0.4 71
2019-07-19 03:00:00 15.5 3 Nordeste 13 Nordeste 0 897.1 -0.1 72
2019-07-19 02:00:00 16.5 6 Nordeste 9 Nordeste 0 897.1 0.2 67
2019-07-19 01:00:00 17.3 7 Nordeste 15 Este 0 897.2 1 64
2019-07-19 00:00:00 18 7 Nordeste 18 Nordeste 0 897.2 1.5 62
2019-07-18 23:00:00 19.2 9 Este 19 Este 0 896.9 1.5 59
2019-07-18 22:00:00 21.3 9 Nordeste 18 Este 0 896.2 1.2 45
2019-07-18 21:00:00 23.6 10 Nordeste 26 Nordeste 0 895.7 0.8 40
2019-07-18 20:00:00 25 13 Nordeste 27 Nordeste 0 895.4 0.4 38
2019-07-18 19:00:00 26.6 13 Nordeste 30 Nordeste 0 895 0.1 36
2019-07-18 18:00:00 27.4 15 Este 30 Norte 0 894.9 -0.3 35
2019-07-18 17:00:00 27 14 Nordeste 28 Nordeste 0 895 -0.6 41
2019-07-18 16:00:00 29.4 8 Oeste 21 Oeste 0 894.9 -1 33
2019-07-18 15:00:00 27.5 6 Sudoeste 25 Sur 0 895.2 -1 40
2019-07-18 14:00:00 27.7 11 Sur 19 Sur 0 895.6 -0.7 47
2019-07-18 13:00:00 25.7 5 Sudeste 14 Sudoeste 0 895.9 -0.5 53
2019-07-18 12:00:00 23.5 6 Sudeste 12 Sur 0 896.2 -0.2 59
2019-07-18 11:00:00 21.4 5 Sur 10 Sudeste 0 896.3 0.2 62
2019-07-18 10:00:00 19.1 3 Nordeste 10 Nordeste 0 896.4 0.7 69
2019-07-18 09:00:00 16.6 5 Nordeste 14 Este 0 896.4 0.8 77
2019-07-18 08:00:00 14.1 9 Nordeste 18 Nordeste 0 896.1 0.3 89
2019-07-18 07:00:00 13.6 8 Nordeste 12 Nordeste 0 895.7 0.2 91
2019-07-18 06:00:00 14 3 Nordeste 17 Nordeste 0 895.6 0 90
2019-07-18 05:00:00 14.5 5 Nordeste 10 Nordeste 0 895.8 -0.2 88
2019-07-18 04:00:00 14.9 3 Nordeste 11 Nordeste 0 895.5 -0.8 86
2019-07-18 03:00:00 15.1 5 Este 13 Nordeste 0 895.6 -0.6 86
2019-07-18 02:00:00 15.7 6 Nordeste 17 Nordeste 0 896 -0.2 85
2019-07-18 01:00:00 16.3 9 Nordeste 20 Nordeste 0 896.3 1.1 84
2019-07-18 00:00:00 16.9 8 Nordeste 18 Nordeste 0 896.2 1.7 83